Time;durP1;ratioP1;P1;durP2;ratioP2;P2;SDS_P1;SDS_P2;PMS_P1;PMS_P2;Temp;Humidity;BMP_temperature;BMP_pressure;BME280_temperature;BME280_humidity;BME280_pressure;Samples;Min_cycle;Max_cycle;Signal;HPM_P1;HPM_P2
2023/03/05 00:02:10;;;;;;;7.17;3.97;;;-2.50;99.90;-3.80;99603;;;;578384;244;24112;-79
2023/03/05 00:04:38;;;;;;;9.00;4.57;;;-2.50;99.90;-3.80;99604;;;;578427;244;24064;-76
2023/03/05 00:07:08;;;;;;;7.13;3.97;;;-2.60;99.90;-3.80;99606;;;;578395;244;24060;-75
2023/03/05 00:09:34;;;;;;;9.27;4.30;;;-2.60;99.90;-3.80;99597;;;;578307;244;24123;-77
2023/03/05 00:12:06;;;;;;;8.33;3.97;;;-2.60;99.90;-3.80;99593;;;;578419;244;24126;-73
2023/03/05 00:14:30;;;;;;;9.60;4.23;;;-2.60;99.90;-3.80;99595;;;;578368;244;24083;-77
2023/03/05 00:16:58;;;;;;;6.93;3.97;;;-2.60;99.90;-3.70;99585;;;;578439;244;24125;-79
2023/03/05 00:19:26;;;;;;;8.80;4.30;;;-2.60;99.90;-3.70;99584;;;;578044;244;24096;-76
2023/03/05 00:21:54;;;;;;;12.83;4.50;;;-2.60;99.90;-3.70;99580;;;;578125;244;24117;-76
2023/03/05 00:24:22;;;;;;;10.20;4.23;;;-2.50;99.90;-3.60;99577;;;;578010;244;24057;-77
2023/03/05 00:26:51;;;;;;;6.97;4.50;;;-2.50;99.90;-3.60;99576;;;;578414;244;24097;-77
2023/03/05 00:29:20;;;;;;;7.00;3.97;;;-2.50;99.90;-3.70;99572;;;;578979;243;24083;-76
2023/03/05 00:31:46;;;;;;;7.97;4.10;;;-2.50;99.90;-3.70;99576;;;;575091;244;24059;-77
2023/03/05 00:34:14;;;;;;;8.23;3.93;;;-2.50;99.90;-3.70;99567;;;;578991;244;24086;-76
2023/03/05 00:36:43;;;;;;;8.20;4.47;;;-2.60;99.90;-3.70;99567;;;;575670;244;24075;-76
2023/03/05 00:39:11;;;;;;;6.83;4.20;;;-2.60;99.90;-3.70;99570;;;;578671;244;24071;-71
2023/03/05 00:41:39;;;;;;;11.20;4.90;;;-2.60;99.90;-3.80;99571;;;;587525;243;24108;-73
2023/03/05 00:44:07;;;;;;;9.93;4.60;;;-2.60;99.90;-3.80;99570;;;;578508;244;24077;-75
2023/03/05 00:46:39;;;;;;;9.90;3.73;;;-2.60;99.90;-3.80;99565;;;;575390;244;24107;-73
2023/03/05 00:49:02;;;;;;;5.13;3.60;;;-2.60;99.90;-3.80;99571;;;;577808;244;24079;-76
2023/03/05 00:51:34;;;;;;;11.13;3.67;;;-2.60;99.90;-3.70;99572;;;;575267;244;24175;-77
2023/03/05 00:53:58;;;;;;;8.80;4.27;;;-2.60;99.90;-3.70;99570;;;;578018;244;25141;-76
2023/03/05 00:56:26;;;;;;;7.93;4.00;;;-2.50;99.90;-3.60;99566;;;;578423;244;24101;-77
2023/03/05 00:58:54;;;;;;;5.77;3.00;;;-2.50;99.90;-3.60;99564;;;;578280;244;24061;-78
2023/03/05 01:01:22;;;;;;;3.63;2.20;;;-2.50;99.90;-3.50;99554;;;;578240;244;24041;-73
2023/03/05 01:03:51;;;;;;;6.17;2.73;;;-2.30;99.90;-3.40;99549;;;;578394;244;24064;-75
2023/03/05 01:06:19;;;;;;;7.20;3.17;;;-2.30;99.90;-3.40;99550;;;;578056;244;24061;-71
2023/03/05 01:08:47;;;;;;;5.37;3.40;;;-2.30;99.90;-3.40;99546;;;;578201;244;24071;-71
2023/03/05 01:11:14;;;;;;;4.93;2.70;;;-2.20;99.90;-3.40;99545;;;;578147;244;24075;-73
2023/03/05 01:13:43;;;;;;;4.33;2.90;;;-2.30;99.90;-3.40;99535;;;;578022;244;24107;-75
2023/03/05 01:16:11;;;;;;;8.93;4.50;;;-2.30;99.90;-3.40;99538;;;;578268;244;24060;-76
2023/03/05 01:18:39;;;;;;;9.43;3.33;;;-2.50;99.90;-3.40;99529;;;;578163;244;24075;-74
2023/03/05 01:21:07;;;;;;;5.40;2.40;;;-2.20;99.90;-3.40;99536;;;;578419;244;24070;-74
2023/03/05 01:23:36;;;;;;;5.07;2.80;;;-2.30;99.90;-3.50;99530;;;;575234;244;24085;-76
2023/03/05 01:26:03;;;;;;;3.80;2.27;;;-2.30;99.90;-3.50;99532;;;;578330;244;24061;-76
2023/03/05 01:28:32;;;;;;;4.50;2.80;;;-2.40;99.90;-3.60;99524;;;;578463;244;24097;-76
2023/03/05 01:30:59;;;;;;;7.30;3.40;;;-2.40;99.90;-3.60;99518;;;;578377;244;24062;-78
2023/03/05 01:33:27;;;;;;;4.77;2.87;;;-2.40;99.90;-3.70;99513;;;;578398;244;24060;-79
2023/03/05 01:35:55;;;;;;;3.90;2.73;;;-2.50;99.90;-3.70;99501;;;;578450;244;24063;-75
2023/03/05 01:38:24;;;;;;;5.40;2.30;;;-2.60;99.90;-3.80;99508;;;;578508;244;24045;-77
2023/03/05 01:40:52;;;;;;;5.77;2.10;;;-2.60;99.90;-3.90;99501;;;;579672;243;24080;-79
2023/03/05 01:43:28;;;;;;;2.87;2.17;;;-2.70;99.90;-4.00;99490;;;;580198;244;24095;-74
2023/03/05 01:46:15;;;;;;;4.30;2.20;;;-2.80;99.90;-4.10;99494;;;;580034;244;24047;-75
2023/03/05 01:48:42;;;;;;;5.80;2.60;;;-2.90;99.90;-4.20;99482;;;;579584;244;24059;-73
2023/03/05 01:51:10;;;;;;;5.90;2.07;;;-3.00;99.90;-4.30;99486;;;;579064;244;27427;-75
2023/03/05 01:53:42;;;;;;;4.73;2.43;;;-3.00;99.90;-4.30;99481;;;;579058;244;25142;-75
2023/03/05 01:56:06;;;;;;;3.63;1.93;;;-3.10;99.90;-4.30;99471;;;;575434;244;24115;-76
2023/03/05 01:58:38;;;;;;;3.87;1.77;;;-3.10;99.90;-4.30;99477;;;;587390;244;25193;-72
2023/03/05 02:01:02;;;;;;;5.20;2.30;;;-3.10;99.90;-4.30;99469;;;;578452;244;24216;-74
2023/03/05 02:03:31;;;;;;;3.93;2.47;;;-3.10;99.90;-4.30;99464;;;;578715;244;24095;-73
2023/03/05 02:05:59;;;;;;;6.17;2.53;;;-3.10;99.90;-4.30;99460;;;;578650;244;24138;-73
2023/03/05 02:08:27;;;;;;;6.87;3.37;;;-3.10;99.90;-4.30;99463;;;;578788;244;25140;-75
2023/03/05 02:10:59;;;;;;;6.10;2.40;;;-3.10;99.90;-4.30;99462;;;;578669;244;24124;-77
2023/03/05 02:13:26;;;;;;;4.50;2.80;;;-3.10;99.90;-4.30;99462;;;;587386;244;24134;-77
2023/03/05 02:15:54;;;;;;;6.70;2.70;;;-3.10;99.90;-4.30;99460;;;;575515;244;24044;-74
2023/03/05 02:18:22;;;;;;;5.73;2.50;;;-3.10;99.90;-4.30;99458;;;;575212;244;24136;-75
2023/03/05 02:20:55;;;;;;;5.27;2.77;;;-3.10;99.90;-4.30;99460;;;;578288;244;24085;-73
2023/03/05 02:23:23;;;;;;;8.93;2.50;;;-3.10;99.90;-4.40;99450;;;;578142;244;24071;-79
2023/03/05 02:25:51;;;;;;;4.00;1.93;;;-3.20;99.90;-4.40;99453;;;;574896;244;25201;-77
2023/03/05 02:28:46;;;;;;;3.27;2.30;;;-3.20;99.90;-4.30;99447;;;;578046;244;24083;-78
2023/03/05 02:31:17;;;;;;;4.47;2.73;;;-3.20;99.90;-4.30;99451;;;;574634;244;25169;-78
2023/03/05 02:33:45;;;;;;;4.03;2.43;;;-3.20;99.90;-4.30;99435;;;;574401;244;24104;-78
2023/03/05 02:36:12;;;;;;;4.33;2.27;;;-3.10;99.90;-4.20;99439;;;;578033;244;24079;-78
2023/03/05 02:38:43;;;;;;;4.20;2.50;;;-3.10;99.90;-4.20;99438;;;;575029;244;24124;-78
2023/03/05 02:41:09;;;;;;;4.77;2.30;;;-3.00;99.90;-4.20;99436;;;;577978;244;24169;-76
2023/03/05 02:43:37;;;;;;;4.90;2.23;;;-3.00;99.90;-4.20;99439;;;;578351;244;24071;-79
2023/03/05 02:46:05;;;;;;;4.73;2.03;;;-3.00;99.90;-4.10;99432;;;;578109;244;24057;-76
2023/03/05 02:48:33;;;;;;;6.80;2.03;;;-3.00;99.90;-4.10;99422;;;;577914;244;24075;-74
2023/03/05 02:51:01;;;;;;;4.37;1.70;;;-3.00;99.90;-4.10;99420;;;;574908;244;24107;-79
2023/03/05 02:53:30;;;;;;;3.40;2.20;;;-3.00;99.90;-4.10;99411;;;;579293;243;24142;-76
2023/03/05 02:56:02;;;;;;;5.33;1.93;;;-3.00;99.90;-4.10;99418;;;;579077;244;24081;-77
2023/03/05 02:58:26;;;;;;;4.83;2.40;;;-2.90;99.90;-4.10;99410;;;;575488;244;24094;-79
2023/03/05 03:00:55;;;;;;;3.67;1.93;;;-3.00;99.90;-4.10;99408;;;;579063;244;24103;-76
2023/03/05 03:03:23;;;;;;;4.73;1.80;;;-3.00;99.90;-4.10;99406;;;;575699;244;24068;-79
2023/03/05 03:05:50;;;;;;;2.13;1.60;;;-3.00;99.90;-4.10;99400;;;;578948;244;25137;-74
2023/03/05 03:08:18;;;;;;;2.80;1.63;;;-2.90;99.90;-4.10;99404;;;;578934;244;24177;-79
2023/03/05 03:10:46;;;;;;;5.07;2.17;;;-2.90;99.90;-4.10;99394;;;;578805;244;24067;-79
2023/03/05 03:13:14;;;;;;;4.57;1.90;;;-2.90;99.90;-4.10;99390;;;;578749;244;24086;-74
2023/03/05 03:15:45;;;;;;;4.33;1.80;;;-2.90;99.90;-4.10;99390;;;;578703;244;24064;-75
2023/03/05 03:18:10;;;;;;;3.67;1.77;;;-2.90;99.90;-4.10;99381;;;;578496;244;24186;-80
2023/03/05 03:20:41;;;;;;;4.17;2.23;;;-3.00;99.90;-4.10;99379;;;;578640;244;24116;-81
2023/03/05 03:23:06;;;;;;;3.03;1.87;;;-2.90;99.90;-4.00;99388;;;;574202;244;24118;-78
2023/03/05 03:25:34;;;;;;;3.23;1.57;;;-2.90;99.90;-4.00;99391;;;;575339;244;24182;-76
2023/03/05 03:28:02;;;;;;;3.57;1.23;;;-2.90;99.90;-4.00;99385;;;;578222;244;24176;-74
2023/03/05 03:30:30;;;;;;;3.73;1.40;;;-2.80;99.90;-3.90;99395;;;;577895;244;24091;-75
2023/03/05 03:32:57;;;;;;;2.73;1.60;;;-2.80;99.90;-3.80;99383;;;;578110;244;25104;-75
2023/03/05 03:35:25;;;;;;;4.57;2.23;;;-2.70;99.90;-3.70;99400;;;;577990;244;24068;-76
2023/03/05 03:37:53;;;;;;;3.80;1.70;;;-2.60;99.90;-3.60;99407;;;;578072;244;24056;-73
2023/03/05 03:40:21;;;;;;;4.63;1.53;;;-2.50;99.90;-3.40;99422;;;;578065;244;24105;-74
2023/03/05 03:42:49;;;;;;;2.30;1.60;;;-2.30;99.90;-3.20;99427;;;;575434;244;24048;-72
2023/03/05 03:45:17;;;;;;;3.00;1.53;;;-2.20;99.90;-3.10;99429;;;;575040;244;24075;-72
2023/03/05 03:47:46;;;;;;;10.63;2.50;;;-2.00;99.90;-3.10;99419;;;;573162;244;35085;-73
2023/03/05 03:50:14;;;;;;;0.60;0.60;;;-1.90;99.90;-3.00;99410;;;;575085;244;24061;-72
2023/03/05 03:52:42;;;;;;;4.30;2.00;;;-1.90;99.90;-3.10;99408;;;;578191;244;24059;-73
2023/03/05 03:55:10;;;;;;;6.43;2.00;;;-1.90;99.90;-3.10;99395;;;;578332;244;24072;-72
2023/03/05 03:57:42;;;;;;;4.30;1.63;;;-2.00;99.90;-3.20;99377;;;;574968;244;24170;-73
2023/03/05 04:00:09;;;;;;;3.70;2.20;;;-2.00;99.90;-3.20;99384;;;;577564;244;24119;-78
2023/03/05 04:02:38;;;;;;;5.30;2.07;;;-2.10;99.90;-3.40;99379;;;;578101;244;24119;-78
2023/03/05 04:05:06;;;;;;;3.93;2.20;;;-2.20;99.90;-3.50;99379;;;;579342;243;24181;-76
2023/03/05 04:07:30;;;;;;;5.00;2.03;;;-2.30;99.90;-3.70;99374;;;;579037;244;24049;-78
2023/03/05 04:09:58;;;;;;;5.87;2.17;;;-2.40;99.90;-3.70;99365;;;;579250;244;24112;-75
2023/03/05 04:12:26;;;;;;;3.63;2.17;;;-2.60;99.90;-3.80;99369;;;;579135;244;24061;-76
2023/03/05 04:14:54;;;;;;;4.47;2.03;;;-2.70;99.90;-3.90;99356;;;;578941;244;24098;-78
2023/03/05 04:17:22;;;;;;;4.67;2.03;;;-2.70;99.90;-3.90;99358;;;;578883;244;25179;-79
2023/03/05 04:19:50;;;;;;;3.23;1.90;;;-2.80;99.90;-4.00;99353;;;;578945;244;24083;-76
2023/03/05 04:22:18;;;;;;;5.50;1.93;;;-2.90;99.90;-4.10;99345;;;;578707;244;24099;-79
2023/03/05 04:24:45;;;;;;;3.13;1.70;;;-2.90;99.90;-4.20;99345;;;;575166;244;24103;-76
2023/03/05 04:27:13;;;;;;;3.90;1.63;;;-3.00;99.90;-4.40;99348;;;;578313;244;24078;-77
2023/03/05 04:29:41;;;;;;;3.47;1.97;;;-3.10;99.90;-4.50;99357;;;;578244;244;24072;-78
2023/03/05 04:32:10;;;;;;;4.37;1.50;;;-3.30;99.90;-4.50;99366;;;;578377;244;24150;-76
2023/03/05 04:34:42;;;;;;;3.07;1.77;;;-3.30;99.90;-4.60;99366;;;;578293;244;24091;-78
2023/03/05 04:37:06;;;;;;;3.30;1.50;;;-3.40;99.90;-4.60;99372;;;;578137;244;24056;-72
2023/03/05 04:39:34;;;;;;;4.53;1.77;;;-3.40;99.90;-4.70;99354;;;;579206;244;24052;-74
2023/03/05 04:42:02;;;;;;;3.53;1.80;;;-3.40;99.90;-4.70;99364;;;;578474;244;24067;-78
2023/03/05 04:44:29;;;;;;;1.80;1.63;;;-3.50;99.90;-4.80;99352;;;;578121;244;24061;-77
2023/03/05 04:46:58;;;;;;;6.50;2.03;;;-3.60;99.90;-4.80;99338;;;;577943;244;24095;-78
2023/03/05 04:49:26;;;;;;;5.10;1.30;;;-3.70;99.90;-4.90;99342;;;;578103;244;24068;-75
2023/03/05 04:51:56;;;;;;;3.13;2.63;;;-3.70;99.90;-5.00;99333;;;;578054;244;24132;-75
2023/03/05 04:54:22;;;;;;;4.27;1.67;;;-3.70;99.90;-5.00;99328;;;;578077;244;24063;-72
2023/03/05 04:56:51;;;;;;;4.43;1.90;;;-3.80;99.90;-5.00;99326;;;;574931;244;24084;-72
2023/03/05 04:59:18;;;;;;;5.00;2.03;;;-3.80;99.90;-5.10;99331;;;;575139;244;24130;-76
2023/03/05 05:01:46;;;;;;;5.70;1.90;;;-3.80;99.90;-5.10;99325;;;;578452;244;24151;-75
2023/03/05 05:04:14;;;;;;;4.77;1.43;;;-3.90;99.90;-5.20;99334;;;;577948;244;24062;-75
2023/03/05 05:06:42;;;;;;;4.83;2.03;;;-3.90;99.90;-5.20;99328;;;;578065;244;24032;-76
2023/03/05 05:09:10;;;;;;;4.80;1.73;;;-4.00;99.90;-5.20;99327;;;;577978;244;24111;-77
2023/03/05 05:11:42;;;;;;;3.60;1.93;;;-4.00;99.90;-5.30;99323;;;;578148;244;24140;-75
2023/03/05 05:14:07;;;;;;;3.93;1.73;;;-4.00;99.90;-5.20;99325;;;;574646;244;24078;-72
2023/03/05 05:16:35;;;;;;;4.50;2.00;;;-4.00;99.90;-5.30;99320;;;;579367;243;24062;-73
2023/03/05 05:19:02;;;;;;;9.40;2.27;;;-4.00;99.90;-5.30;99326;;;;579033;244;24158;-74
2023/03/05 05:21:30;;;;;;;6.53;2.17;;;-4.00;99.90;-5.30;99331;;;;578753;244;24149;-75
2023/03/05 05:23:58;;;;;;;3.20;2.00;;;-4.00;99.90;-5.30;99317;;;;578839;244;25147;-74
2023/03/05 05:26:26;;;;;;;5.23;2.20;;;-4.00;99.90;-5.30;99317;;;;578963;244;25137;-75
2023/03/05 05:28:54;;;;;;;5.70;1.87;;;-4.10;99.90;-5.30;99331;;;;578860;244;25248;-73
2023/03/05 05:31:25;;;;;;;7.20;2.50;;;-4.10;99.90;-5.30;99326;;;;578918;244;24102;-73
2023/03/05 05:33:50;;;;;;;3.83;2.47;;;-4.20;99.90;-5.30;99323;;;;575395;244;24123;-76
2023/03/05 05:36:18;;;;;;;7.43;3.67;;;-4.00;99.90;-5.20;99321;;;;578644;244;24094;-75
2023/03/05 05:38:46;;;;;;;5.90;3.10;;;-4.00;99.90;-5.20;99316;;;;575558;244;24077;-75
2023/03/05 05:41:14;;;;;;;4.87;2.57;;;-4.00;99.90;-5.10;99318;;;;578749;244;24129;-74
2023/03/05 05:43:42;;;;;;;2.87;2.03;;;-3.90;99.90;-5.10;99313;;;;575692;244;24080;-76
2023/03/05 05:46:12;;;;;;;4.60;1.90;;;-3.90;99.90;-5.10;99317;;;;578766;244;24090;-77
2023/03/05 05:48:40;;;;;;;5.83;1.87;;;-3.90;99.90;-5.10;99311;;;;575030;244;24068;-75
2023/03/05 05:51:11;;;;;;;4.00;2.10;;;-3.80;99.90;-5.00;99320;;;;578699;244;24110;-74
2023/03/05 05:53:43;;;;;;;5.43;2.00;;;-3.80;99.90;-5.00;99314;;;;575397;244;24146;-73
2023/03/05 05:56:08;;;;;;;3.80;2.70;;;-3.80;99.90;-4.90;99314;;;;587060;244;24091;-75
2023/03/05 05:58:38;;;;;;;4.33;2.23;;;-3.70;99.90;-4.90;99308;;;;578072;244;24076;-76
2023/03/05 06:01:03;;;;;;;5.20;2.30;;;-3.70;99.90;-4.80;99318;;;;584392;243;24108;-74
2023/03/05 06:03:32;;;;;;;4.33;2.50;;;-3.60;99.90;-4.80;99308;;;;574168;244;24057;-76
2023/03/05 06:06:00;;;;;;;4.90;2.07;;;-3.60;99.90;-4.70;99311;;;;578540;244;24071;-73
2023/03/05 06:08:28;;;;;;;5.10;2.00;;;-3.50;99.90;-4.60;99312;;;;578537;244;24095;-77
2023/03/05 06:10:59;;;;;;;4.17;1.90;;;-3.40;99.90;-4.60;99312;;;;578697;244;24046;-77
2023/03/05 06:13:24;;;;;;;3.80;2.33;;;-3.40;99.90;-4.50;99310;;;;578071;244;24081;-76
2023/03/05 06:15:57;;;;;;;3.50;2.10;;;-3.30;99.90;-4.40;99305;;;;578667;244;24164;-71
2023/03/05 06:18:25;;;;;;;3.70;1.83;;;-3.20;99.90;-4.30;99315;;;;575614;244;24076;-77
2023/03/05 06:20:57;;;;;;;2.13;1.67;;;-3.10;99.90;-4.20;99299;;;;578641;244;24062;-74
2023/03/05 06:23:25;;;;;;;4.63;2.03;;;-3.10;99.90;-4.20;99311;;;;575661;244;24192;-73
2023/03/05 06:25:53;;;;;;;4.63;2.00;;;-3.00;99.90;-4.10;99304;;;;575613;244;24144;-73
2023/03/05 06:28:21;;;;;;;5.23;1.80;;;-2.90;99.90;-4.00;99313;;;;579981;243;24061;-74
2023/03/05 06:30:48;;;;;;;3.93;1.80;;;-2.80;99.90;-3.90;99289;;;;579492;244;24123;-75
2023/03/05 06:33:17;;;;;;;5.00;1.90;;;-2.70;99.90;-3.80;99298;;;;579802;244;24059;-72
2023/03/05 06:35:44;;;;;;;2.77;1.53;;;-2.70;99.90;-3.70;99293;;;;576211;244;24094;-76
2023/03/05 06:38:13;;;;;;;2.40;1.57;;;-2.40;99.90;-3.60;99295;;;;578942;244;24114;-75
2023/03/05 06:40:42;;;;;;;2.77;1.80;;;-2.30;99.90;-3.50;99293;;;;579086;244;24068;-76
2023/03/05 06:43:10;;;;;;;2.60;1.90;;;-2.30;99.90;-3.00;99307;;;;579015;244;24078;-73
2023/03/05 06:45:37;;;;;;;3.53;1.60;;;-1.90;99.90;-1.30;99314;;;;578819;244;24049;-77
2023/03/05 06:48:05;;;;;;;2.30;1.40;;;-0.70;99.90;1.30;99326;;;;578579;244;24097;-76
2023/03/05 06:50:37;;;;;;;7.00;1.62;;;3.60;99.90;3.60;99334;;;;573596;244;35037;-75
2023/03/05 06:53:06;;;;;;;2.87;1.67;;;3.60;99.90;6.00;99336;;;;578365;244;24053;-76
2023/03/05 06:55:38;;;;;;;3.87;1.73;;;8.00;99.90;7.80;99333;;;;575056;244;24124;-77
2023/03/05 06:57:58;;;;;;;3.83;1.57;;;8.00;99.90;7.80;99336;;;;575058;244;24074;-73
2023/03/05 07:00:28;;;;;;;3.50;1.70;;;8.60;99.90;8.20;99332;;;;575447;244;24119;-76
2023/03/05 07:02:54;;;;;;;1.77;1.67;;;8.90;99.90;9.90;99332;;;;575137;244;24067;-75
2023/03/05 07:05:22;;;;;;;3.83;1.57;;;10.20;99.90;11.50;99344;;;;575022;244;24070;-74
2023/03/05 07:07:50;;;;;;;1.43;1.23;;;11.70;99.90;12.90;99337;;;;587463;244;24091;-73
2023/03/05 07:10:18;;;;;;;2.17;1.37;;;13.10;99.90;13.80;99344;;;;578657;244;24073;-73
2023/03/05 07:12:46;;;;;;;3.90;1.70;;;14.30;99.90;14.70;99343;;;;578601;244;24073;-74
2023/03/05 07:15:14;;;;;;;5.07;1.77;;;15.10;99.90;15.70;99343;;;;575596;244;24060;-73
2023/03/05 07:17:43;;;;;;;3.60;1.60;;;17.10;99.30;16.80;99344;;;;578684;244;24098;-75
2023/03/05 07:20:11;;;;;;;3.07;1.73;;;17.10;98.90;17.70;99345;;;;578759;244;24118;-77
2023/03/05 07:22:39;;;;;;;2.03;1.37;;;18.50;90.60;17.70;99350;;;;578768;244;24131;-78
2023/03/05 07:25:07;;;;;;;3.43;1.60;;;18.50;90.60;17.70;99339;;;;578629;244;24054;-73
2023/03/05 07:27:35;;;;;;;2.93;1.80;;;18.60;88.90;18.20;99340;;;;578665;244;24096;-74
2023/03/05 07:30:03;;;;;;;3.00;1.50;;;18.90;86.00;18.60;99342;;;;578196;244;24099;-74
2023/03/05 07:32:34;;;;;;;1.57;1.47;;;19.30;73.70;19.10;99343;;;;575161;244;24044;-74
2023/03/05 07:34:59;;;;;;;2.33;1.80;;;19.80;68.10;19.50;99353;;;;574631;244;23122;-75
2023/03/05 07:37:28;;;;;;;4.50;2.03;;;20.10;56.50;19.30;99346;;;;574897;244;23104;-76
2023/03/05 07:39:55;;;;;;;1.60;1.50;;;20.00;56.30;19.20;99341;;;;579922;243;23096;-74
2023/03/05 07:42:23;;;;;;;1.90;1.60;;;20.00;52.00;19.40;99347;;;;579453;244;23073;-75
2023/03/05 07:44:51;;;;;;;2.07;1.87;;;20.00;51.60;20.10;99341;;;;579231;244;24083;-76
2023/03/05 07:47:22;;;;;;;3.40;2.00;;;21.00;47.10;20.60;99341;;;;579108;244;24063;-77
2023/03/05 07:49:48;;;;;;;1.80;1.70;;;21.00;47.10;20.50;99346;;;;578823;244;24147;-75
2023/03/05 07:52:19;;;;;;;2.03;1.70;;;21.20;45.10;20.40;99339;;;;578845;244;24090;-78
2023/03/05 07:54:44;;;;;;;2.40;1.43;;;21.00;44.10;20.90;99350;;;;575480;244;24146;-74
2023/03/05 07:57:12;;;;;;;3.17;2.00;;;21.90;41.80;21.50;99344;;;;578684;244;24064;-77
2023/03/05 07:59:41;;;;;;;2.27;1.70;;;21.80;41.70;21.40;99348;;;;578180;244;24057;-74
2023/03/05 08:02:11;;;;;;;1.60;1.50;;;22.00;40.40;21.40;99344;;;;578388;244;24077;-75
2023/03/05 08:04:41;;;;;;;1.73;1.40;;;22.00;39.70;21.90;99358;;;;574749;244;24091;-75
2023/03/05 08:07:06;;;;;;;2.67;2.00;;;22.40;38.60;22.00;99356;;;;577982;244;23156;-77
2023/03/05 08:09:34;;;;;;;3.27;1.83;;;22.60;38.10;22.20;99354;;;;578745;244;24047;-77
2023/03/05 08:12:02;;;;;;;2.60;2.10;;;22.90;37.70;22.50;99351;;;;578647;244;23127;-74
2023/03/05 08:14:30;;;;;;;2.97;2.33;;;23.20;36.70;22.90;99349;;;;578605;244;23061;-78
2023/03/05 08:16:58;;;;;;;5.30;2.33;;;23.50;36.30;22.70;99355;;;;578342;244;23151;-77
2023/03/05 08:19:27;;;;;;;2.17;1.47;;;23.70;34.80;23.00;99361;;;;578438;244;24104;-77
2023/03/05 08:21:55;;;;;;;3.60;2.62;;;23.70;34.80;23.40;99355;;;;570253;244;46088;-76
2023/03/05 08:24:28;;;;;;;6.43;3.27;;;24.00;34.50;23.60;99353;;;;578406;244;23051;-75
2023/03/05 08:26:50;;;;;;;2.27;1.73;;;24.40;34.30;23.80;99351;;;;578196;244;24073;-77
2023/03/05 08:29:18;;;;;;;5.13;2.47;;;24.50;33.70;23.90;99359;;;;578425;244;24097;-78
2023/03/05 08:31:46;;;;;;;5.13;2.20;;;24.70;33.40;23.30;99353;;;;578179;244;24138;-77
2023/03/05 08:34:14;;;;;;;4.40;2.30;;;24.30;32.80;22.50;99350;;;;578111;244;23096;-74
2023/03/05 08:36:42;;;;;;;8.17;4.10;;;23.60;34.30;22.00;99348;;;;577869;244;23084;-74
2023/03/05 08:39:10;;;;;;;8.27;4.10;;;23.00;33.90;21.90;99348;;;;578145;244;23069;-76
2023/03/05 08:41:41;;;;;;;7.37;3.80;;;22.70;34.50;22.40;99343;;;;577989;244;23108;-78
2023/03/05 08:44:07;;;;;;;6.73;3.63;;;23.30;33.60;22.70;99347;;;;577979;244;24061;-78
2023/03/05 08:46:35;;;;;;;1.43;1.27;;;23.50;34.10;22.80;99337;;;;578016;244;24186;-76
2023/03/05 08:49:03;;;;;;;10.40;4.20;;;23.40;34.00;22.40;99352;;;;575054;244;23070;-74
2023/03/05 08:51:34;;;;;;;13.27;6.27;;;23.20;33.10;21.70;99341;;;;579560;243;23131;-74
2023/03/05 08:54:00;;;;;;;8.70;5.03;;;22.70;33.40;21.70;99341;;;;578725;244;24096;-74
2023/03/05 08:56:30;;;;;;;7.30;4.07;;;22.80;34.40;22.00;99341;;;;575744;244;24066;-74
2023/03/05 08:58:56;;;;;;;8.20;3.93;;;23.10;33.80;22.30;99345;;;;578364;244;24112;-74
2023/03/05 09:01:24;;;;;;;8.13;4.07;;;23.10;33.70;22.10;99330;;;;576048;244;23086;-74
2023/03/05 09:03:52;;;;;;;4.47;1.50;;;23.00;34.00;22.90;99344;;;;578998;244;23084;-74
2023/03/05 09:06:24;;;;;;;4.30;2.90;;;23.60;33.70;23.30;99339;;;;578875;244;24128;-77
2023/03/05 09:08:49;;;;;;;9.43;3.90;;;23.60;32.40;22.10;99348;;;;578394;244;23089;-73
2023/03/05 09:11:17;;;;;;;2.20;1.87;;;23.60;32.50;20.50;99340;;;;578257;244;24130;-76
2023/03/05 09:13:45;;;;;;;2.13;1.97;;;22.30;33.30;18.60;99336;;;;575377;244;24197;-74
2023/03/05 09:16:13;;;;;;;5.20;3.00;;;20.00;36.30;18.70;99337;;;;578288;244;24077;-75
2023/03/05 09:18:42;;;;;;;3.67;2.33;;;20.60;36.60;20.00;99343;;;;575240;244;24074;-73
2023/03/05 09:21:13;;;;;;;3.37;2.40;;;20.60;36.60;20.20;99353;;;;578279;244;24045;-73
2023/03/05 09:23:41;;;;;;;1.70;1.17;;;21.00;35.60;18.90;99347;;;;574968;244;24118;-75
2023/03/05 09:26:09;;;;;;;2.63;1.60;;;20.30;35.00;18.20;99337;;;;575005;244;23145;-73
2023/03/05 09:28:40;;;;;;;7.17;3.37;;;19.50;35.50;18.00;99344;;;;577829;244;24056;-74
2023/03/05 09:31:06;;;;;;;13.57;5.67;;;19.20;35.80;17.70;99348;;;;577813;244;24073;-72
2023/03/05 09:33:33;;;;;;;11.97;5.17;;;18.80;35.90;17.80;99348;;;;578313;244;24120;-77
2023/03/05 09:36:05;;;;;;;8.43;3.03;;;18.70;36.50;17.70;99352;;;;575304;244;24048;-74
2023/03/05 09:38:30;;;;;;;1.73;1.20;;;18.30;36.50;17.10;99339;;;;578277;244;24085;-75
2023/03/05 09:41:02;;;;;;;3.23;2.93;;;18.20;36.40;16.00;99343;;;;578384;244;24102;-74
2023/03/05 09:44:15;;;;;;;2.87;2.03;;;17.40;37.90;15.00;99337;;;;578218;244;24150;-76
2023/03/05 09:46:54;;;;;;;1.77;1.00;;;16.50;38.70;13.60;99326;;;;578392;244;24101;-76
2023/03/05 09:49:47;;;;;;;4.77;2.70;;;15.10;40.20;13.50;99334;;;;578298;244;24120;-76
2023/03/05 09:52:14;;;;;;;3.20;1.83;;;14.70;41.90;13.30;99331;;;;577512;244;24067;-77
2023/03/05 09:54:43;;;;;;;5.70;1.30;;;14.10;42.30;13.10;99340;;;;575054;244;24107;-75
2023/03/05 09:57:17;;;;;;;6.83;1.83;;;14.10;42.20;12.80;99331;;;;575160;244;24103;-76
2023/03/05 09:59:48;;;;;;;4.57;2.23;;;13.80;42.30;12.40;99328;;;;578272;244;24097;-78
2023/03/05 10:02:31;;;;;;;3.03;1.87;;;13.70;42.20;12.40;99326;;;;565153;248;24144;-74
2023/03/05 10:05:17;;;;;;;2.23;1.40;;;13.80;42.20;12.90;99323;;;;578517;244;24123;-77
2023/03/05 10:07:45;;;;;;;5.80;2.07;;;14.10;42.20;13.00;99313;;;;575089;244;24107;-76
2023/03/05 10:10:15;;;;;;;1.77;0.90;;;14.40;41.50;12.80;99326;;;;575333;244;24111;-76
2023/03/05 10:12:46;;;;;;;1.50;0.90;;;14.30;41.60;13.00;99318;;;;578844;244;24076;-77
2023/03/05 10:15:17;;;;;;;6.20;1.10;;;14.40;41.70;13.40;99319;;;;578788;244;24157;-79
2023/03/05 10:18:18;;;;;;;2.40;1.30;;;15.10;41.40;13.80;99317;;;;575601;244;24142;-77
2023/03/05 10:21:13;;;;;;;3.33;1.33;;;15.10;41.30;14.30;99312;;;;578658;244;24123;-79
2023/03/05 10:24:00;;;;;;;4.93;1.00;;;15.50;41.00;14.40;99316;;;;578711;244;24066;-77
2023/03/05 10:26:40;;;;;;;3.73;1.40;;;15.80;40.20;13.80;99312;;;;578752;244;24066;-77
2023/03/05 10:29:07;;;;;;;3.95;1.70;;;15.50;40.20;12.50;99310;;;;570220;244;35107;-78
2023/03/05 10:31:56;;;;;;;3.77;1.60;;;14.50;41.20;10.50;99310;;;;578387;244;25162;-77
2023/03/05 10:34:39;;;;;;;2.30;1.30;;;12.80;43.40;9.80;99307;;;;578454;244;24154;-77
2023/03/05 10:37:22;;;;;;;1.07;0.73;;;10.90;47.10;9.40;99310;;;;578245;244;24049;-74
2023/03/05 10:40:21;;;;;;;4.00;1.07;;;10.80;47.00;8.50;99299;;;;575129;244;24108;-77
2023/03/05 10:43:07;;;;;;;3.10;1.43;;;10.00;46.80;7.50;99300;;;;577795;244;24154;-78
2023/03/05 10:45:44;;;;;;;1.57;0.80;;;8.90;49.10;6.70;99289;;;;578247;244;24060;-78
2023/03/05 10:48:42;;;;;;;1.20;0.67;;;8.10;50.70;6.40;99288;;;;574577;244;24095;-78
2023/03/05 10:51:25;;;;;;;1.37;0.50;;;7.60;52.10;6.00;99297;;;;580519;244;24064;-77
2023/03/05 10:53:56;;;;;;;3.73;1.40;;;7.10;53.10;5.80;99292;;;;578146;244;24065;-77
2023/03/05 10:56:24;;;;;;;2.57;0.63;;;6.70;53.70;5.50;99284;;;;574328;244;25149;-77
2023/03/05 10:58:52;;;;;;;1.07;0.70;;;6.20;55.50;5.20;99288;;;;586870;244;24092;-78
2023/03/05 11:01:30;;;;;;;3.90;0.60;;;6.20;55.50;5.10;99280;;;;577985;244;24074;-75
2023/03/05 11:04:00;;;;;;;2.03;1.20;;;6.10;56.30;5.10;99285;;;;577856;244;24053;-78
2023/03/05 11:06:36;;;;;;;6.73;1.67;;;6.00;56.70;5.10;99276;;;;577984;244;24080;-76
2023/03/05 11:09:28;;;;;;;1.33;0.90;;;5.90;56.80;5.20;99274;;;;578021;244;24071;-77
2023/03/05 11:12:14;;;;;;;0.60;0.60;;;6.00;56.80;5.20;99282;;;;578442;244;25126;-78
2023/03/05 11:15:03;;;;;;;7.80;1.17;;;6.00;57.00;4.80;99274;;;;579559;243;24089;-76
2023/03/05 11:17:49;;;;;;;0.67;0.40;;;5.70;56.40;4.30;99267;;;;579278;244;26179;-77
2023/03/05 11:20:29;;;;;;;2.57;1.27;;;5.30;57.00;4.00;99271;;;;579242;244;24070;-77
2023/03/05 11:23:18;;;;;;;1.33;1.20;;;4.90;58.00;3.80;99270;;;;575762;244;24071;-73
2023/03/05 11:25:55;;;;;;;0.70;0.70;;;4.70;59.00;3.70;99270;;;;575665;244;24092;-74
2023/03/05 11:28:34;;;;;;;0.40;0.33;;;4.60;60.50;3.70;99256;;;;576076;244;24051;-73
2023/03/05 11:31:15;;;;;;;0.60;0.60;;;4.50;61.00;3.90;99263;;;;578724;244;24056;-73
2023/03/05 11:34:01;;;;;;;0.90;0.90;;;4.70;61.40;4.00;99252;;;;578718;244;24486;-73